Time;durP1;ratioP1;P1;durP2;ratioP2;P2;SDS_P1;SDS_P2;PMS_P1;PMS_P2;Temp;Humidity;BMP_temperature;BMP_pressure;BME280_temperature;BME280_humidity;BME280_pressure;Samples;Min_cycle;Max_cycle;Signal;HPM_P1;HPM_P2
2024/03/04 00:00:16;;;;;;;10.70;9.60;;;10.80;1.00;;;;;;5095982;28;20180;-42
2024/03/04 00:02:42;;;;;;;9.90;8.90;;;10.80;1.00;;;;;;5096151;28;20439;-42
2024/03/04 00:05:08;;;;;;;12.43;10.63;;;10.80;1.00;;;;;;5096411;28;20418;-42
2024/03/04 00:07:33;;;;;;;10.23;9.23;;;10.70;1.00;;;;;;5095514;28;20454;-43
2024/03/04 00:09:59;;;;;;;11.47;9.60;;;10.70;1.00;;;;;;5093623;28;20485;-40
2024/03/04 00:12:25;;;;;;;10.90;8.70;;;10.70;1.00;;;;;;5095552;28;20389;-41
2024/03/04 00:14:51;;;;;;;9.30;8.40;;;10.60;1.00;;;;;;5094629;28;20200;-40
2024/03/04 00:17:17;;;;;;;11.67;9.60;;;10.60;1.00;;;;;;5093956;28;20179;-42
2024/03/04 00:19:43;;;;;;;10.70;9.63;;;10.60;7.30;;;;;;5094200;28;20411;-42
2024/03/04 00:22:09;;;;;;;11.37;9.30;;;10.60;17.00;;;;;;5094647;28;20161;-41
2024/03/04 00:24:34;;;;;;;11.10;9.40;;;10.60;24.80;;;;;;5081504;28;20352;-42
2024/03/04 00:27:00;;;;;;;9.40;8.40;;;10.60;37.50;;;;;;5099122;28;20525;-42
2024/03/04 00:29:28;;;;;;;9.63;8.70;;;10.60;61.00;;;;;;5099185;28;20223;-41
2024/03/04 00:31:54;;;;;;;10.10;8.87;;;10.60;92.20;;;;;;5102299;28;20168;-41
2024/03/04 00:34:20;;;;;;;10.50;9.40;;;10.50;99.90;;;;;;5103665;28;20432;-40
2024/03/04 00:36:46;;;;;;;10.30;9.30;;;10.50;99.90;;;;;;5102330;28;20196;-40
2024/03/04 00:39:13;;;;;;;9.90;9.00;;;10.50;99.90;;;;;;5085277;28;20183;-41
2024/03/04 00:41:38;;;;;;;10.07;8.80;;;10.50;99.90;;;;;;5086436;28;20176;-42
2024/03/04 00:44:04;;;;;;;9.70;8.70;;;10.40;99.90;;;;;;5104181;28;20414;-41
2024/03/04 00:46:30;;;;;;;12.50;11.20;;;10.40;99.90;;;;;;5084745;28;20253;-42
2024/03/04 00:48:56;;;;;;;10.00;8.30;;;10.40;99.90;;;;;;5103199;28;20220;-42
2024/03/04 00:51:21;;;;;;;10.90;9.43;;;10.40;99.90;;;;;;5103432;28;20545;-41
2024/03/04 00:53:47;;;;;;;10.20;8.90;;;10.40;99.90;;;;;;5103061;28;20481;-40
2024/03/04 00:56:14;;;;;;;9.57;8.57;;;10.30;99.90;;;;;;5068435;28;20173;-43
2024/03/04 00:58:43;;;;;;;10.03;8.73;;;10.30;99.90;;;;;;5085214;28;20176;-41
2024/03/04 01:01:08;;;;;;;10.10;8.90;;;10.30;99.90;;;;;;5104390;28;20449;-42
2024/03/04 01:03:35;;;;;;;10.97;9.83;;;10.30;99.90;;;;;;5086182;28;20426;-42
2024/03/04 01:06:00;;;;;;;13.90;9.67;;;10.20;99.90;;;;;;5101426;28;20418;-42
2024/03/04 01:08:26;;;;;;;9.10;8.20;;;10.20;99.90;;;;;;5100983;28;20793;-40
2024/03/04 01:10:55;;;;;;;10.17;8.63;;;10.20;99.90;;;;;;5103124;28;20183;-41
2024/03/04 01:13:23;;;;;;;9.90;8.90;;;10.20;99.90;;;;;;5102514;28;20418;-41
2024/03/04 01:15:51;;;;;;;9.83;8.83;;;10.10;99.90;;;;;;5099639;28;20749;-41
2024/03/04 01:18:17;;;;;;;11.40;9.13;;;10.10;99.90;;;;;;5098964;28;20529;-42
2024/03/04 01:20:46;;;;;;;10.40;9.30;;;10.10;99.90;;;;;;5103472;28;20541;-44
2024/03/04 01:23:12;;;;;;;10.73;9.13;;;10.10;99.90;;;;;;5104471;28;20510;-43
2024/03/04 01:25:38;;;;;;;10.93;9.03;;;10.00;99.90;;;;;;5104079;28;20438;-44
2024/03/04 01:28:04;;;;;;;10.33;9.33;;;10.00;1.00;;;;;;5084424;28;20465;-42
2024/03/04 01:30:30;;;;;;;7.63;6.03;;;10.00;1.00;;;;;;5102508;28;20499;-42
2024/03/04 01:33:06;;;;;;;6.90;5.83;;;10.30;99.90;;;;;;5103071;28;20185;-41
2024/03/04 01:35:32;;;;;;;6.50;5.80;;;11.00;1.00;;;;;;5100540;28;20200;-42
2024/03/04 01:37:59;;;;;;;9.67;8.17;;;11.80;99.90;;;;;;5098710;28;20468;-40
2024/03/04 01:40:25;;;;;;;10.10;9.10;;;12.20;1.00;;;;;;5099590;28;20430;-40
2024/03/04 01:42:54;;;;;;;12.80;8.40;;;12.30;99.90;;;;;;5099656;28;20445;-41
2024/03/04 01:45:24;;;;;;;10.10;8.97;;;12.60;1.00;;;;;;5100826;28;20172;-41
2024/03/04 01:47:52;;;;;;;9.67;8.67;;;12.00;1.00;;;;;;5098693;28;20465;-42
2024/03/04 01:50:17;;;;;;;10.37;9.37;;;11.70;1.00;;;;;;5082509;28;20505;-42
2024/03/04 01:52:43;;;;;;;12.23;9.40;;;11.50;99.90;;;;;;5099740;28;20502;-41
2024/03/04 01:55:09;;;;;;;12.63;11.30;;;11.30;99.90;;;;;;5100507;28;20271;-43
2024/03/04 01:57:35;;;;;;;11.33;9.70;;;11.10;1.00;;;;;;5099243;28;20271;-42
2024/03/04 02:00:01;;;;;;;11.40;10.20;;;10.90;1.00;;;;;;5100292;28;20546;-41
2024/03/04 02:02:29;;;;;;;13.60;11.80;;;10.80;1.00;;;;;;5099659;28;20445;-42
2024/03/04 02:04:55;;;;;;;12.50;11.20;;;10.70;1.00;;;;;;5098444;28;20659;-41
2024/03/04 02:07:22;;;;;;;12.37;11.07;;;10.70;1.00;;;;;;5097914;28;20450;-41
2024/03/04 02:09:47;;;;;;;12.10;10.90;;;10.60;1.00;;;;;;5098974;28;20466;-43
2024/03/04 02:12:13;;;;;;;11.40;10.30;;;10.50;1.00;;;;;;5100087;28;20429;-41
2024/03/04 02:14:41;;;;;;;12.57;10.33;;;10.50;1.00;;;;;;5081784;28;20270;-40
2024/03/04 02:17:07;;;;;;;12.20;11.00;;;10.40;1.00;;;;;;5098720;28;20441;-41
2024/03/04 02:19:33;;;;;;;11.40;10.30;;;10.30;1.00;;;;;;5098931;28;20502;-40
2024/03/04 02:22:01;;;;;;;12.90;11.70;;;10.30;1.00;;;;;;5099947;28;20460;-42
2024/03/04 02:24:27;;;;;;;12.93;11.63;;;10.30;1.00;;;;;;5099168;28;20172;-40
2024/03/04 02:26:52;;;;;;;14.03;11.73;;;10.20;20.80;;;;;;5098482;28;20440;-40
2024/03/04 02:29:18;;;;;;;12.90;11.60;;;10.20;25.40;;;;;;5097704;28;20208;-43
2024/03/04 02:31:45;;;;;;;12.60;11.30;;;10.20;46.60;;;;;;5099756;28;20181;-39
2024/03/04 02:34:12;;;;;;;11.00;10.00;;;10.10;92.10;;;;;;5081376;28;20426;-41
2024/03/04 02:36:38;;;;;;;13.47;12.07;;;10.10;99.90;;;;;;5079100;28;20422;-40
2024/03/04 02:39:10;;;;;;;12.57;11.30;;;10.00;99.90;;;;;;5079148;28;20701;-41
2024/03/04 02:41:39;;;;;;;12.73;10.73;;;10.00;99.90;;;;;;5097884;28;20465;-39
2024/03/04 02:44:05;;;;;;;13.00;11.80;;;10.00;99.90;;;;;;5080443;28;20414;-41
2024/03/04 02:46:31;;;;;;;12.77;11.40;;;9.90;99.90;;;;;;5098108;28;20840;-40
2024/03/04 02:48:57;;;;;;;12.27;10.83;;;9.90;99.90;;;;;;5097436;28;20461;-41
2024/03/04 02:51:23;;;;;;;12.43;10.40;;;9.90;99.90;;;;;;5099043;28;20180;-44
2024/03/04 02:53:49;;;;;;;11.53;10.40;;;9.80;99.90;;;;;;5098482;28;20418;-42
2024/03/04 02:56:14;;;;;;;11.13;10.03;;;9.80;99.90;;;;;;5098819;28;20525;-41
2024/03/04 02:58:40;;;;;;;11.67;10.47;;;9.80;99.90;;;;;;5097845;28;20218;-41
2024/03/04 03:01:06;;;;;;;12.10;10.83;;;9.70;99.90;;;;;;5079247;28;20266;-40
2024/03/04 03:03:31;;;;;;;10.47;9.30;;;9.70;99.90;;;;;;5099070;28;20184;-40
2024/03/04 03:06:10;;;;;;;12.07;10.77;;;9.70;99.90;;;;;;5098952;28;20192;-41
2024/03/04 03:08:35;;;;;;;10.57;9.53;;;9.70;99.90;;;;;;5094698;28;20231;-41
2024/03/04 03:11:01;;;;;;;10.40;9.30;;;9.70;99.90;;;;;;5098503;28;20439;-42
2024/03/04 03:13:27;;;;;;;11.43;10.20;;;9.60;99.90;;;;;;5081018;28;20229;-41
2024/03/04 03:15:53;;;;;;;10.87;9.77;;;9.60;99.90;;;;;;5097804;28;20268;-39
2024/03/04 03:18:19;;;;;;;11.40;10.20;;;9.60;99.90;;;;;;5097425;28;20749;-42
2024/03/04 03:20:44;;;;;;;12.90;11.40;;;9.60;99.90;;;;;;5098501;28;20275;-40
2024/03/04 03:23:10;;;;;;;10.90;9.40;;;9.50;99.90;;;;;;5078771;28;20286;-40
2024/03/04 03:25:35;;;;;;;12.37;11.07;;;9.50;99.90;;;;;;5095849;28;20176;-42
2024/03/04 03:28:01;;;;;;;12.30;10.60;;;9.50;99.90;;;;;;5096672;28;20204;-40
2024/03/04 03:30:27;;;;;;;11.70;10.30;;;9.50;1.00;;;;;;5079833;28;20225;-41
2024/03/04 03:32:53;;;;;;;10.83;9.73;;;9.50;1.00;;;;;;5097122;28;20172;-42
2024/03/04 03:35:19;;;;;;;10.60;9.50;;;9.50;1.00;;;;;;5095781;28;20426;-43
2024/03/04 03:37:46;;;;;;;11.83;10.57;;;9.50;1.00;;;;;;5097224;28;20193;-44
2024/03/04 03:40:11;;;;;;;11.77;10.57;;;9.50;1.00;;;;;;5097692;28;20632;-40
2024/03/04 03:42:37;;;;;;;11.23;10.03;;;9.50;1.00;;;;;;5098624;28;20418;-41
2024/03/04 03:45:03;;;;;;;11.63;10.43;;;9.50;1.00;;;;;;5096751;28;20177;-42
2024/03/04 03:47:30;;;;;;;12.93;11.67;;;9.50;1.00;;;;;;5096400;28;20585;-41
2024/03/04 03:49:56;;;;;;;11.40;10.07;;;9.50;1.00;;;;;;5097510;28;20707;-41
2024/03/04 03:52:24;;;;;;;11.27;10.13;;;9.50;1.00;;;;;;5098185;28;20971;-43
2024/03/04 03:54:49;;;;;;;11.57;10.37;;;9.50;1.00;;;;;;5098314;28;20493;-42
2024/03/04 03:57:15;;;;;;;10.93;9.03;;;9.50;1.00;;;;;;5094696;28;20444;-41
2024/03/04 03:59:42;;;;;;;12.50;11.30;;;9.50;1.00;;;;;;5094592;28;20179;-41
2024/03/04 04:02:08;;;;;;;12.47;11.13;;;9.60;1.00;;;;;;5097599;28;20168;-41
2024/03/04 04:04:33;;;;;;;11.23;10.13;;;9.60;1.00;;;;;;5097622;28;20694;-42
2024/03/04 04:06:59;;;;;;;12.27;11.07;;;9.60;1.00;;;;;;5079259;28;20177;-40
2024/03/04 04:09:25;;;;;;;11.90;10.73;;;9.60;1.00;;;;;;5115764;28;20253;-40
2024/03/04 04:11:50;;;;;;;13.03;10.67;;;9.60;1.00;;;;;;5117671;28;20179;-42
2024/03/04 04:14:16;;;;;;;11.60;10.40;;;9.70;1.00;;;;;;5118455;28;20172;-40
2024/03/04 04:16:42;;;;;;;13.00;11.60;;;9.70;1.00;;;;;;5118085;28;20565;-43
2024/03/04 04:19:07;;;;;;;12.23;11.00;;;9.70;1.00;;;;;;5115923;28;20291;-42
2024/03/04 04:21:33;;;;;;;15.17;12.10;;;9.70;31.70;;;;;;5117297;28;20207;-41
2024/03/04 04:23:59;;;;;;;13.00;10.57;;;9.70;27.60;;;;;;5118127;28;20184;-41
2024/03/04 04:26:25;;;;;;;13.60;11.53;;;9.80;35.60;;;;;;5117397;28;20847;-41
2024/03/04 04:28:52;;;;;;;11.60;10.40;;;9.80;30.30;;;;;;5116239;28;20186;-41
2024/03/04 04:31:23;;;;;;;11.63;10.43;;;9.80;24.90;;;;;;5118170;28;20413;-42
2024/03/04 04:33:49;;;;;;;12.43;11.13;;;9.80;16.50;;;;;;5099847;28;20417;-42
2024/03/04 04:36:16;;;;;;;11.80;10.53;;;9.90;12.60;;;;;;5116523;28;20565;-41
2024/03/04 04:38:42;;;;;;;13.23;11.50;;;9.90;27.30;;;;;;5116501;28;20465;-43
2024/03/04 04:41:08;;;;;;;12.23;10.93;;;9.90;28.00;;;;;;5116577;28;20456;-40
2024/03/04 04:43:33;;;;;;;11.30;10.10;;;9.90;38.90;;;;;;5116307;28;20472;-40
2024/03/04 04:45:59;;;;;;;12.70;11.40;;;9.90;59.30;;;;;;5115579;28;20680;-40
2024/03/04 04:48:25;;;;;;;12.17;10.90;;;9.90;85.40;;;;;;5114539;28;20179;-42
2024/03/04 04:50:50;;;;;;;13.80;10.80;;;10.00;96.20;;;;;;5114941;28;20211;-41
2024/03/04 04:53:16;;;;;;;10.77;9.73;;;10.00;95.40;;;;;;5117601;28;20187;-41
2024/03/04 04:55:42;;;;;;;12.53;11.33;;;10.00;89.10;;;;;;5117363;28;20180;-43
2024/03/04 04:58:07;;;;;;;12.77;11.50;;;10.00;85.40;;;;;;5116647;28;20199;-43
2024/03/04 05:00:33;;;;;;;12.17;10.97;;;10.10;69.90;;;;;;5115311;28;20565;-42
2024/03/04 05:02:58;;;;;;;11.47;10.30;;;10.10;94.80;;;;;;5116041;28;20562;-41
2024/03/04 05:05:24;;;;;;;13.00;11.40;;;10.10;99.90;;;;;;5116882;28;20175;-42
2024/03/04 05:07:50;;;;;;;12.13;10.87;;;10.10;96.30;;;;;;5117762;28;20222;-41
2024/03/04 05:10:15;;;;;;;12.90;11.47;;;10.10;94.70;;;;;;5119824;28;20554;-41
2024/03/04 05:12:41;;;;;;;11.83;10.63;;;10.10;59.30;;;;;;5103648;28;20457;-41
2024/03/04 05:15:08;;;;;;;11.23;9.97;;;10.20;31.90;;;;;;5121720;28;20513;-41
2024/03/04 05:17:36;;;;;;;12.97;11.67;;;10.20;12.10;;;;;;5120952;28;20203;-41
2024/03/04 05:20:06;;;;;;;12.30;11.10;;;10.20;22.40;;;;;;5120212;28;20448;-42
2024/03/04 05:22:32;;;;;;;18.00;11.90;;;10.20;45.80;;;;;;5119487;28;20429;-40
2024/03/04 05:24:57;;;;;;;11.93;10.30;;;10.20;88.20;;;;;;5101707;28;20409;-41
2024/03/04 05:27:23;;;;;;;12.20;10.90;;;10.20;99.90;;;;;;5119419;28;20251;-42
2024/03/04 05:29:49;;;;;;;11.53;10.43;;;10.20;99.90;;;;;;5101930;28;20442;-43
2024/03/04 05:32:14;;;;;;;11.60;10.40;;;10.20;99.90;;;;;;5120919;28;20511;-41
2024/03/04 05:34:41;;;;;;;10.47;9.47;;;10.20;99.90;;;;;;5103549;28;20213;-43
2024/03/04 05:37:06;;;;;;;11.63;10.43;;;10.20;99.90;;;;;;5119481;28;20724;-40
2024/03/04 05:39:32;;;;;;;11.73;10.00;;;10.20;99.90;;;;;;5119354;28;20215;-41
2024/03/04 05:41:58;;;;;;;12.17;11.00;;;10.30;99.90;;;;;;5119549;28;20245;-41
2024/03/04 05:44:24;;;;;;;12.27;11.07;;;10.30;99.90;;;;;;5119342;28;20255;-41
2024/03/04 05:46:49;;;;;;;11.87;10.10;;;10.30;99.90;;;;;;5120038;28;20817;-41
2024/03/04 05:49:15;;;;;;;11.50;10.17;;;10.30;99.90;;;;;;5120318;28;20258;-40
2024/03/04 05:51:41;;;;;;;11.80;10.70;;;10.30;99.90;;;;;;5118634;28;20529;-41
2024/03/04 05:54:08;;;;;;;12.07;10.93;;;10.30;99.90;;;;;;5101778;28;20512;-42
2024/03/04 05:56:33;;;;;;;11.67;10.57;;;10.40;99.90;;;;;;5085046;28;20437;-44
2024/03/04 05:58:59;;;;;;;12.20;10.97;;;10.40;99.90;;;;;;5117906;28;20787;-42
2024/03/04 06:01:25;;;;;;;13.37;11.03;;;10.40;99.90;;;;;;5119512;28;20285;-43
2024/03/04 06:03:51;;;;;;;13.67;11.20;;;10.40;99.90;;;;;;5118094;28;20619;-43
2024/03/04 06:06:17;;;;;;;12.50;11.30;;;10.40;99.90;;;;;;5117852;28;20237;-41
2024/03/04 06:08:44;;;;;;;13.23;11.83;;;10.40;99.90;;;;;;5117375;28;20461;-42
2024/03/04 06:11:11;;;;;;;12.93;11.63;;;10.40;99.90;;;;;;5117454;28;20335;-41
2024/03/04 06:13:36;;;;;;;12.70;11.40;;;10.40;1.00;;;;;;5116013;28;20847;-42
2024/03/04 06:16:03;;;;;;;13.07;11.53;;;10.40;1.00;;;;;;5099266;28;20665;-44
2024/03/04 06:18:28;;;;;;;13.60;12.17;;;10.40;1.00;;;;;;5117339;28;20303;-43
2024/03/04 06:20:54;;;;;;;12.90;11.47;;;10.40;1.00;;;;;;5118316;28;20938;-41
2024/03/04 06:23:20;;;;;;;12.57;11.20;;;10.40;1.00;;;;;;5114848;28;20240;-41
2024/03/04 06:25:45;;;;;;;13.60;12.07;;;10.40;99.90;;;;;;5117568;28;20370;-41
2024/03/04 06:28:11;;;;;;;15.33;13.70;;;10.50;99.90;;;;;;5117370;28;20215;-43
2024/03/04 06:30:37;;;;;;;16.83;13.40;;;10.50;99.90;;;;;;5100834;28;20199;-43
2024/03/04 06:33:03;;;;;;;16.80;13.00;;;10.50;99.90;;;;;;5117528;28;20593;-42
2024/03/04 06:35:28;;;;;;;14.27;12.80;;;10.50;99.90;;;;;;5115992;28;20171;-41
2024/03/04 06:37:54;;;;;;;15.90;14.00;;;10.50;1.00;;;;;;5100340;28;20480;-42
2024/03/04 06:40:19;;;;;;;18.73;13.80;;;10.50;1.00;;;;;;5082788;28;20184;-43
2024/03/04 06:42:45;;;;;;;15.77;13.80;;;10.50;1.00;;;;;;5098190;28;20168;-42
2024/03/04 06:45:11;;;;;;;15.30;13.63;;;10.50;1.00;;;;;;5116807;28;20172;-42
2024/03/04 06:47:37;;;;;;;15.87;13.53;;;10.50;68.30;;;;;;5116976;28;20179;-41
2024/03/04 06:50:04;;;;;;;16.10;13.57;;;10.50;99.90;;;;;;5113240;28;20425;-43
2024/03/04 06:52:30;;;;;;;15.23;13.63;;;10.50;99.90;;;;;;5114418;28;20172;-42
2024/03/04 06:54:56;;;;;;;16.03;13.30;;;10.50;1.00;;;;;;5116030;28;20926;-44
2024/03/04 06:57:22;;;;;;;15.50;13.80;;;10.50;1.00;;;;;;5115888;28;20207;-42
2024/03/04 06:59:47;;;;;;;16.43;14.47;;;10.50;1.00;;;;;;5118046;28;20468;-43
2024/03/04 07:02:13;;;;;;;15.90;13.47;;;10.50;1.00;;;;;;5099311;28;20399;-42
2024/03/04 07:04:38;;;;;;;18.20;14.00;;;10.50;96.40;;;;;;5115384;28;20381;-42
2024/03/04 07:07:04;;;;;;;19.97;14.87;;;10.50;99.90;;;;;;5116063;28;20172;-44
2024/03/04 07:09:30;;;;;;;18.17;13.73;;;10.50;99.90;;;;;;5095353;28;20236;-44
2024/03/04 07:11:55;;;;;;;16.20;13.90;;;10.50;99.90;;;;;;5097878;28;20172;-41
2024/03/04 07:14:22;;;;;;;18.17;14.13;;;10.50;1.00;;;;;;5096384;28;20199;-42
2024/03/04 07:16:48;;;;;;;17.60;14.60;;;10.50;1.00;;;;;;5096717;28;20217;-42
2024/03/04 07:19:13;;;;;;;19.00;15.53;;;10.60;17.50;;;;;;5097457;28;20620;-42
2024/03/04 07:21:39;;;;;;;18.33;13.70;;;10.60;46.50;;;;;;5096484;28;20802;-43
2024/03/04 07:24:05;;;;;;;17.60;14.37;;;10.60;99.90;;;;;;5096410;28;20539;-44
2024/03/04 07:26:31;;;;;;;17.40;14.17;;;10.60;99.90;;;;;;5095962;28;20186;-41
2024/03/04 07:28:57;;;;;;;19.97;15.10;;;10.60;99.90;;;;;;5075428;28;20707;-42
2024/03/04 07:31:24;;;;;;;18.53;15.53;;;10.60;99.90;;;;;;5073959;28;20856;-40
2024/03/04 07:33:50;;;;;;;14.00;8.43;;;10.60;99.90;;;;;;5090700;28;20797;-44
2024/03/04 07:36:16;;;;;;;4.83;3.23;;;10.70;99.90;;;;;;5094032;28;20432;-45
2024/03/04 07:38:41;;;;;;;5.33;4.20;;;12.30;1.00;;;;;;5094975;28;20845;-47
2024/03/04 07:41:07;;;;;;;11.03;4.77;;;13.30;99.90;;;;;;5093881;28;20172;-46
2024/03/04 07:43:34;;;;;;;7.17;4.60;;;14.10;77.00;;;;;;5094571;28;20181;-48
2024/03/04 07:46:00;;;;;;;14.03;5.07;;;15.00;1.00;;;;;;5094563;28;20165;-46
2024/03/04 07:48:26;;;;;;;8.87;5.67;;;15.60;1.00;;;;;;5094410;28;20426;-47
2024/03/04 07:50:52;;;;;;;5.83;4.50;;;16.00;1.00;;;;;;5094907;28;20254;-47
2024/03/04 07:53:17;;;;;;;8.20;5.53;;;16.60;13.40;;;;;;5092698;28;20176;-44
2024/03/04 07:55:43;;;;;;;8.00;5.53;;;16.90;1.00;;;;;;5095024;28;20194;-46
2024/03/04 07:58:09;;;;;;;8.37;5.73;;;17.10;1.00;;;;;;5095073;28;20372;-44
2024/03/04 08:00:35;;;;;;;8.07;5.37;;;17.30;99.90;;;;;;5094285;28;20406;-47
2024/03/04 08:03:01;;;;;;;10.73;9.60;;;17.50;40.50;;;;;;5093391;28;20433;-43
2024/03/04 08:05:26;;;;;;;16.53;12.80;;;17.40;1.00;;;;;;5093358;28;20483;-41
2024/03/04 08:07:52;;;;;;;16.77;12.80;;;16.90;99.90;;;;;;5102791;28;20547;-41
2024/03/04 08:10:18;;;;;;;15.23;13.63;;;16.30;99.90;;;;;;5117017;28;20516;-49
2024/03/04 08:12:43;;;;;;;17.27;14.50;;;15.60;99.90;;;;;;5115365;28;20251;-43
2024/03/04 08:15:09;;;;;;;17.73;14.10;;;15.10;99.90;;;;;;5094086;28;20167;-40
2024/03/04 08:17:35;;;;;;;17.67;14.60;;;14.50;99.90;;;;;;5114660;28;20227;-40
2024/03/04 08:20:07;;;;;;;18.53;16.33;;;14.10;1.00;;;;;;5115845;28;20508;-41
2024/03/04 08:22:32;;;;;;;18.20;16.10;;;13.70;1.00;;;;;;5115301;28;20658;-42
2024/03/04 08:24:58;;;;;;;16.80;14.47;;;13.40;1.00;;;;;;5114664;28;20402;-44
2024/03/04 08:27:24;;;;;;;17.10;15.20;;;13.10;99.90;;;;;;5114546;28;20270;-41
2024/03/04 08:29:49;;;;;;;19.10;16.30;;;12.90;99.90;;;;;;5116374;28;20692;-41
2024/03/04 08:32:15;;;;;;;17.37;15.10;;;12.80;1.00;;;;;;5098529;28;20168;-41
2024/03/04 08:34:41;;;;;;;19.60;16.13;;;12.60;17.90;;;;;;5114500;28;20184;-39
2024/03/04 08:37:06;;;;;;;20.37;16.57;;;12.50;99.90;;;;;;5116819;28;20276;-42
2024/03/04 08:39:32;;;;;;;19.30;15.67;;;12.40;1.00;;;;;;5116551;28;20239;-40
2024/03/04 08:41:58;;;;;;;21.07;17.17;;;12.30;99.80;;;;;;5116603;28;20510;-40
2024/03/04 08:44:24;;;;;;;21.13;15.90;;;12.20;1.00;;;;;;5116105;28;20301;-41
2024/03/04 08:46:50;;;;;;;19.23;17.07;;;12.20;1.00;;;;;;5119971;28;20304;-42
2024/03/04 08:49:15;;;;;;;21.20;16.27;;;12.10;99.90;;;;;;5118574;28;20827;-39
2024/03/04 08:51:42;;;;;;;18.63;14.90;;;12.10;99.90;;;;;;5121105;28;20254;-40
2024/03/04 08:54:07;;;;;;;24.90;18.60;;;12.10;99.90;;;;;;5120128;28;20421;-41
2024/03/04 08:56:33;;;;;;;21.10;16.37;;;12.00;1.00;;;;;;5117712;28;20680;-43
2024/03/04 08:58:59;;;;;;;22.90;16.00;;;12.10;1.00;;;;;;5117514;28;20468;-41
2024/03/04 09:01:31;;;;;;;21.10;16.37;;;12.00;1.00;;;;;;5096166;28;20532;-41
2024/03/04 09:03:57;;;;;;;17.90;14.40;;;12.00;1.00;;;;;;5116148;28;20409;-42
2024/03/04 09:06:24;;;;;;;21.60;16.43;;;11.90;1.00;;;;;;5099500;28;20428;-40
2024/03/04 09:08:50;;;;;;;21.27;15.47;;;11.90;64.10;;;;;;5116648;28;20567;-40
2024/03/04 09:11:16;;;;;;;18.10;16.20;;;11.90;99.90;;;;;;5118967;28;20842;-40
2024/03/04 09:13:42;;;;;;;19.40;15.60;;;11.90;99.90;;;;;;5117356;28;20426;-40
2024/03/04 09:16:08;;;;;;;20.87;16.50;;;11.90;1.00;;;;;;5118893;28;20542;-41
2024/03/04 09:18:35;;;;;;;19.50;16.83;;;11.90;1.00;;;;;;5101263;28;20506;-42
2024/03/04 09:21:01;;;;;;;24.67;17.30;;;11.90;1.00;;;;;;5119697;28;20458;-41
2024/03/04 09:23:27;;;;;;;21.37;16.77;;;11.90;1.00;;;;;;5118489;28;20421;-43
2024/03/04 09:25:54;;;;;;;17.73;13.80;;;11.90;16.60;;;;;;5119915;28;20421;-43
2024/03/04 09:28:20;;;;;;;19.93;16.27;;;11.90;99.90;;;;;;5116231;28;20186;-41
2024/03/04 09:30:46;;;;;;;20.57;15.70;;;12.00;99.90;;;;;;5119313;28;20770;-43
2024/03/04 09:33:11;;;;;;;19.50;16.00;;;12.00;99.90;;;;;;5100084;28;20691;-42
2024/03/04 09:35:37;;;;;;;18.97;15.50;;;12.10;99.90;;;;;;5119250;28;20180;-41
2024/03/04 09:38:06;;;;;;;19.60;16.30;;;12.10;99.90;;;;;;5120392;28;20207;-41
2024/03/04 09:40:34;;;;;;;19.73;15.93;;;12.10;99.90;;;;;;5120157;28;20417;-41
2024/03/04 09:43:00;;;;;;;17.60;15.07;;;12.10;95.80;;;;;;5119606;28;20815;-41
2024/03/04 09:45:27;;;;;;;20.70;15.40;;;12.10;56.50;;;;;;5119375;28;20505;-41
2024/03/04 09:47:55;;;;;;;20.33;16.30;;;12.10;8.30;;;;;;5116627;28;20436;-40
2024/03/04 09:50:22;;;;;;;19.17;15.57;;;12.10;1.00;;;;;;5118002;28;20425;-40
2024/03/04 09:52:49;;;;;;;19.23;15.57;;;12.10;1.00;;;;;;5100489;28;20438;-40
2024/03/04 09:55:15;;;;;;;20.37;16.20;;;12.10;1.00;;;;;;5100070;28;20444;-41
2024/03/04 09:57:41;;;;;;;22.10;16.30;;;12.20;1.00;;;;;;5100201;28;20836;-41
2024/03/04 10:00:13;;;;;;;18.90;16.13;;;12.20;1.00;;;;;;5098787;28;20485;-44
2024/03/04 10:02:42;;;;;;;20.13;15.27;;;12.20;1.00;;;;;;5119376;28;20239;-42
2024/03/04 10:05:12;;;;;;;22.00;16.93;;;12.20;1.00;;;;;;5117407;28;20414;-41
2024/03/04 10:07:38;;;;;;;18.73;15.70;;;12.20;1.00;;;;;;5119034;28;20493;-40
2024/03/04 10:10:05;;;;;;;17.70;14.50;;;12.30;1.00;;;;;;5084484;28;20424;-41
2024/03/04 10:12:31;;;;;;;20.43;16.53;;;12.30;99.90;;;;;;5119903;28;20418;-43
2024/03/04 10:15:09;;;;;;;18.17;15.60;;;12.30;99.90;;;;;;5119866;28;20428;-40
2024/03/04 10:17:35;;;;;;;19.10;15.03;;;12.30;99.90;;;;;;5118132;28;20418;-41
2024/03/04 10:20:05;;;;;;;21.13;16.23;;;12.30;99.90;;;;;;5117021;28;20516;-40
2024/03/04 10:22:32;;;;;;;20.20;15.90;;;12.50;99.90;;;;;;5097250;28;20421;-41
2024/03/04 10:25:08;;;;;;;20.27;15.47;;;12.30;99.90;;;;;;5115862;28;20413;-41
2024/03/04 10:27:47;;;;;;;20.83;16.80;;;12.20;99.90;;;;;;5099208;28;20433;-42
2024/03/04 10:30:24;;;;;;;21.90;16.90;;;12.20;99.90;;;;;;5115429;28;20479;-41
2024/03/04 10:33:10;;;;;;;19.90;16.23;;;12.20;99.90;;;;;;5117609;28;20511;-41
2024/03/04 10:35:35;;;;;;;20.37;17.00;;;12.10;99.90;;;;;;5115675;28;20839;-43
2024/03/04 10:38:02;;;;;;;19.97;15.93;;;12.20;99.90;;;;;;5118815;28;20473;-41
2024/03/04 10:40:29;;;;;;;23.33;17.83;;;12.30;99.90;;;;;;5117320;28;20577;-43
2024/03/04 10:42:59;;;;;;;24.13;17.17;;;12.30;99.90;;;;;;5117903;28;20758;-42
2024/03/04 10:45:28;;;;;;;22.47;17.97;;;12.30;99.90;;;;;;5100114;28;20430;-43
2024/03/04 10:47:55;;;;;;;24.10;17.83;;;12.30;99.90;;;;;;5116848;28;20506;-41
2024/03/04 10:50:20;;;;;;;23.70;18.00;;;12.30;99.90;;;;;;5119603;28;20425;-43
2024/03/04 10:52:46;;;;;;;22.93;18.80;;;12.30;99.90;;;;;;5100681;28;20437;-40
2024/03/04 10:55:12;;;;;;;27.23;21.00;;;12.40;99.90;;;;;;5101077;28;20190;-42
2024/03/04 10:57:42;;;;;;;26.67;19.43;;;12.40;99.30;;;;;;5118434;28;20212;-42
2024/03/04 11:00:25;;;;;;;22.57;17.73;;;12.40;1.00;;;;;;5099701;28;20518;-42
2024/03/04 11:03:02;;;;;;;26.50;19.03;;;12.50;1.00;;;;;;5117884;28;20848;-42
2024/03/04 11:05:31;;;;;;;26.27;20.40;;;12.50;1.00;;;;;;5116370;28;20425;-40
2024/03/04 11:08:15;;;;;;;24.40;20.33;;;12.60;1.00;;;;;;5117123;28;20473;-40
2024/03/04 11:11:00;;;;;;;28.83;20.17;;;12.60;99.90;;;;;;5082702;28;20544;-41
2024/03/04 11:13:36;;;;;;;29.07;20.30;;;12.70;99.90;;;;;;5099340;28;20427;-41
2024/03/04 11:16:30;;;;;;;23.33;18.03;;;12.70;33.00;;;;;;5097694;28;20451;-42
2024/03/04 11:19:11;;;;;;;25.40;20.83;;;12.80;1.00;;;;;;5099031;28;20465;-50
2024/03/04 11:21:42;;;;;;;19.20;14.43;;;12.80;1.00;;;;;;5100014;28;20836;-40
2024/03/04 11:24:09;;;;;;;10.80;7.20;;;12.90;17.10;;;;;;5116797;28;20437;-45
2024/03/04 11:26:36;;;;;;;8.93;7.00;;;13.20;1.00;;;;;;5098727;28;20433;-44
2024/03/04 11:29:03;;;;;;;10.30;6.73;;;13.70;1.00;;;;;;5117007;28;20498;-42
2024/03/04 11:31:31;;;;;;;11.77;8.30;;;14.20;1.00;;;;;;5117100;28;20946;-41
2024/03/04 11:34:01;;;;;;;13.53;9.00;;;14.60;99.90;;;;;;5098488;28;20826;-43
2024/03/04 11:36:27;;;;;;;13.73;9.53;;;14.90;1.00;;;;;;5115059;28;20438;-43
2024/03/04 11:38:55;;;;;;;9.87;7.60;;;15.30;99.90;;;;;;5098364;28;20571;-42
2024/03/04 11:41:41;;;;;;;9.10;8.13;;;15.60;1.00;;;;;;5113155;28;20549;-44
2024/03/04 11:44:11;;;;;;;10.50;8.40;;;15.90;1.00;;;;;;5115783;28;21004;-45
2024/03/04 11:46:46;;;;;;;10.77;8.00;;;16.20;99.90;;;;;;5116481;28;20436;-42
2024/03/04 11:49:23;;;;;;;10.50;9.00;;;16.40;1.00;;;;;;5114814;28;20501;-41
2024/03/04 11:52:09;;;;;;;9.93;8.80;;;16.60;1.00;;;;;;5115022;28;20839;-42
2024/03/04 11:54:35;;;;;;;18.33;13.03;;;16.80;99.90;;;;;;5115811;28;20512;-41
2024/03/04 11:57:06;;;;;;;17.13;14.30;;;16.80;1.00;;;;;;5113770;28;20645;-43
2024/03/04 11:59:32;;;;;;;20.40;17.00;;;16.60;99.90;;;;;;5112633;28;20203;-41
2024/03/04 12:01:58;;;;;;;19.53;16.10;;;16.30;99.90;;;;;;5114225;28;20420;-41
2024/03/04 12:04:26;;;;;;;22.93;18.57;;;16.00;99.90;;;;;;5117655;28;20434;-41
2024/03/04 12:06:52;;;;;;;23.47;17.80;;;15.70;99.90;;;;;;5114783;28;20507;-42
2024/03/04 12:09:20;;;;;;;19.70;16.20;;;15.50;99.90;;;;;;5114455;28;20481;-42
2024/03/04 12:11:45;;;;;;;25.40;18.30;;;15.20;99.90;;;;;;5114869;28;20502;-41
2024/03/04 12:14:11;;;;;;;23.97;18.83;;;15.00;99.90;;;;;;5098625;28;20436;-43
2024/03/04 12:16:40;;;;;;;22.33;18.53;;;14.80;99.90;;;;;;5098740;28;20354;-39
2024/03/04 12:19:06;;;;;;;23.73;20.37;;;14.70;99.90;;;;;;5096056;28;20276;-41
2024/03/04 12:21:33;;;;;;;24.77;18.87;;;14.50;99.90;;;;;;5112717;28;20432;-41
2024/03/04 12:23:58;;;;;;;23.10;19.40;;;14.40;99.90;;;;;;5097196;28;20557;-41
2024/03/04 12:26:24;;;;;;;23.63;19.07;;;14.30;99.90;;;;;;5115306;28;20482;-43
2024/03/04 12:29:04;;;;;;;23.70;19.27;;;14.30;1.00;;;;;;5115605;28;20236;-43
2024/03/04 12:31:30;;;;;;;26.20;19.93;;;14.20;1.00;;;;;;5098195;28;20184;-43
2024/03/04 12:33:56;;;;;;;27.03;21.53;;;14.10;1.00;;;;;;5116433;28;20421;-41